New Orleans, Louisiana
Traffic Map
Current Weather Conditions
New Orleans, Louisiana
Overcast
Overcast
68°
Feels Like: 68°
Wind Chill: 68° Ceiling: 200
Heat Index: 68° Visibility: 0.5mi
Dew Point: 68° Wind: 10mph
Humidity: 100% Direction: 160° (SSE)
Pressure: 30.13in Gusts: 0mph
Raw Report DataKNEW 180753Z AUTO 16009KT 1/2SM VV002 20/20 A3013 RMK AO2 SLP197 T02000200
Traffic Incident Summary
Active as of:
Severity:
Category:
InformationThere was an issue retrieving the traffic information for this location. Please try a different location or try again shortly.
Advertisements
Track Severe Weather on mobile